createdAt,value
2024-05-09T03:01:40.651Z,11.80
2024-05-09T03:04:08.085Z,11.70
2024-05-09T03:06:42.225Z,11.80
2024-05-09T03:09:09.714Z,11.80
2024-05-09T03:11:40.585Z,11.70
2024-05-09T03:14:08.839Z,11.50
2024-05-09T03:16:43.018Z,11.60
2024-05-09T03:19:10.606Z,11.60
2024-05-09T03:21:41.679Z,11.60
2024-05-09T03:24:08.758Z,11.70
2024-05-09T03:26:38.490Z,11.60
2024-05-09T03:29:05.712Z,11.50
2024-05-09T03:31:35.576Z,11.50
2024-05-09T03:34:05.419Z,11.50
2024-05-09T03:36:35.395Z,11.40
2024-05-09T03:39:05.205Z,11.10
2024-05-09T03:41:35.057Z,11.00
2024-05-09T03:44:04.877Z,11.00
2024-05-09T03:46:32.083Z,11.00
2024-05-09T03:49:01.874Z,11.00
2024-05-09T03:51:31.932Z,11.00
2024-05-09T03:54:01.603Z,11.00
2024-05-09T03:56:28.703Z,11.00
2024-05-09T03:58:59.145Z,11.00
2024-05-09T04:01:26.317Z,11.00
2024-05-09T04:03:56.269Z,11.10
2024-05-09T04:06:24.675Z,11.20
2024-05-09T04:08:57.366Z,11.20
2024-05-09T04:11:24.534Z,11.30
2024-05-09T04:13:54.264Z,11.10
2024-05-09T04:16:21.331Z,11.10
2024-05-09T04:18:51.086Z,11.20
2024-05-09T04:21:18.292Z,11.20
2024-05-09T04:23:48.090Z,11.20
2024-05-09T04:26:17.830Z,11.30
2024-05-09T04:28:47.562Z,11.40
2024-05-09T04:31:14.716Z,11.30
2024-05-09T04:33:44.550Z,11.40
2024-05-09T04:36:11.739Z,11.40
2024-05-09T04:38:41.452Z,11.50
2024-05-09T04:41:08.635Z,11.50
2024-05-09T04:43:41.037Z,11.50
2024-05-09T04:46:08.128Z,11.40
2024-05-09T04:48:37.849Z,11.40
2024-05-09T04:51:07.324Z,11.50
2024-05-09T04:53:37.250Z,11.60
2024-05-09T04:56:05.297Z,11.60
2024-05-09T04:58:34.995Z,11.50
2024-05-09T05:01:05.001Z,11.60
2024-05-09T05:03:34.800Z,11.40
2024-05-09T05:06:02.470Z,11.50
2024-05-09T05:08:32.356Z,11.60
2024-05-09T05:11:00.468Z,11.50
2024-05-09T05:13:33.717Z,11.30
2024-05-09T05:16:00.969Z,11.20
2024-05-09T05:18:33.486Z,11.20
2024-05-09T05:21:00.617Z,11.20
2024-05-09T05:23:30.418Z,11.30
2024-05-09T05:25:57.624Z,11.40
2024-05-09T05:28:27.443Z,11.40
2024-05-09T05:30:54.638Z,11.50
2024-05-09T05:33:24.642Z,11.40
2024-05-09T05:35:54.476Z,11.30
2024-05-09T05:38:27.418Z,11.40
2024-05-09T05:40:55.696Z,11.60
2024-05-09T05:43:25.550Z,11.80
2024-05-09T05:45:52.815Z,11.80
2024-05-09T05:48:22.672Z,11.70
2024-05-09T05:50:49.895Z,11.70
2024-05-09T05:53:22.287Z,11.70
2024-05-09T05:55:49.457Z,11.80
2024-05-09T05:58:20.283Z,12.00
2024-05-09T06:00:48.193Z,12.10
2024-05-09T06:03:18.436Z,12.20
2024-05-09T06:05:46.577Z,12.20
2024-05-09T06:08:16.604Z,12.20
2024-05-09T06:10:46.446Z,12.30
2024-05-09T06:13:16.635Z,12.30
2024-05-09T06:15:44.080Z,12.40
2024-05-09T06:18:14.391Z,12.50
2024-05-09T06:20:43.438Z,12.50
2024-05-09T06:23:14.611Z,12.60
2024-05-09T06:25:42.698Z,12.60
2024-05-09T06:28:15.366Z,12.80
2024-05-09T06:30:43.361Z,12.90
2024-05-09T06:33:15.940Z,12.90
2024-05-09T06:35:44.745Z,12.90
2024-05-09T06:38:14.803Z,13.00
2024-05-09T06:40:43.803Z,13.20
2024-05-09T06:43:19.288Z,13.30
2024-05-09T06:45:48.263Z,13.40
2024-05-09T06:48:21.593Z,13.50
2024-05-09T06:50:49.796Z,13.60
2024-05-09T06:53:20.187Z,13.60
2024-05-09T06:55:47.405Z,13.60
2024-05-09T06:58:20.649Z,13.70
2024-05-09T07:00:47.898Z,13.80
2024-05-09T07:03:19.474Z,13.90
2024-05-09T07:05:48.621Z,13.90
2024-05-09T07:08:19.603Z,13.90
2024-05-09T07:10:47.071Z,14.00
2024-05-09T07:13:19.673Z,14.00
2024-05-09T07:15:46.724Z,14.10
2024-05-09T07:18:20.052Z,14.00
2024-05-09T07:20:49.148Z,14.10
2024-05-09T07:23:19.921Z,14.30
2024-05-09T07:25:47.280Z,14.40
2024-05-09T07:28:21.161Z,14.30
2024-05-09T07:30:48.457Z,14.40
2024-05-09T07:33:23.696Z,14.50
2024-05-09T07:35:51.929Z,14.60
2024-05-09T07:38:21.880Z,14.70
2024-05-09T07:40:49.440Z,14.80
2024-05-09T07:43:21.830Z,14.90
2024-05-09T07:45:53.566Z,15.00
2024-05-09T07:50:01.047Z,15.00
2024-05-09T07:53:49.338Z,15.20
2024-05-09T07:56:22.006Z,15.30
2024-05-09T07:58:56.386Z,15.30
2024-05-09T08:01:27.493Z,15.30
2024-05-09T08:03:54.923Z,15.40
2024-05-09T08:06:25.722Z,15.60
2024-05-09T08:08:53.021Z,15.70
2024-05-09T08:11:23.759Z,15.80
2024-05-09T08:13:53.565Z,15.90
2024-05-09T08:16:23.588Z,16.00
2024-05-09T08:18:50.960Z,16.00
2024-05-09T08:21:20.630Z,16.10
2024-05-09T08:23:47.730Z,16.20
2024-05-09T08:26:17.475Z,16.30
2024-05-09T08:28:44.784Z,16.30
2024-05-09T08:31:17.111Z,16.30
2024-05-09T08:33:45.329Z,16.40
2024-05-09T08:36:15.186Z,16.40
2024-05-09T08:38:42.271Z,16.50
2024-05-09T08:41:12.062Z,16.50
2024-05-09T08:43:41.957Z,16.60
2024-05-09T08:46:13.027Z,16.70
2024-05-09T08:48:45.631Z,16.70
2024-05-09T08:51:16.831Z,16.80
2024-05-09T08:53:43.984Z,16.90
2024-05-09T08:56:14.462Z,17.00
2024-05-09T08:58:42.923Z,17.00
2024-05-09T09:01:13.093Z,17.00
2024-05-09T09:03:45.031Z,17.10
2024-05-09T09:06:15.795Z,17.10
2024-05-09T09:08:45.629Z,17.20
2024-05-09T09:11:15.506Z,17.20
2024-05-09T09:13:42.599Z,17.30
2024-05-09T09:16:12.989Z,17.30
2024-05-09T09:18:44.416Z,17.40
2024-05-09T09:21:14.656Z,17.50
2024-05-09T09:23:41.837Z,17.50
2024-05-09T09:26:11.573Z,17.60
2024-05-09T09:28:38.702Z,17.60
2024-05-09T09:31:08.429Z,17.70
2024-05-09T09:33:36.478Z,17.90
2024-05-09T09:36:11.575Z,18.00
2024-05-09T09:38:39.741Z,18.10
2024-05-09T09:41:11.618Z,18.10
2024-05-09T09:43:39.846Z,18.10
2024-05-09T09:46:12.645Z,18.20
2024-05-09T09:48:41.502Z,18.30
2024-05-09T09:51:14.383Z,18.40
2024-05-09T09:53:44.094Z,18.50
2024-05-09T09:56:14.426Z,18.70
2024-05-09T09:58:44.048Z,18.70
2024-05-09T10:01:13.922Z,18.90
2024-05-09T10:03:43.105Z,19.10
2024-05-09T10:06:16.553Z,19.40
2024-05-09T10:08:47.084Z,19.70
2024-05-09T10:11:21.943Z,20.00
2024-05-09T10:13:51.336Z,20.30
2024-05-09T10:16:23.967Z,20.60
2024-05-09T10:18:51.447Z,20.80
2024-05-09T10:21:24.253Z,21.00
2024-05-09T10:23:58.285Z,21.20
2024-05-09T10:26:35.448Z,21.40
2024-05-09T10:29:12.069Z,21.60
2024-05-09T10:31:44.282Z,21.60
2024-05-09T10:34:17.732Z,21.80
2024-05-09T10:36:55.271Z,22.00
2024-05-09T10:39:22.845Z,22.10
2024-05-09T10:41:52.710Z,22.10
2024-05-09T10:44:21.806Z,22.20
2024-05-09T10:46:53.759Z,22.40
2024-05-09T10:49:21.255Z,22.50
2024-05-09T10:51:53.725Z,22.60
2024-05-09T10:54:20.883Z,22.80
2024-05-09T10:56:58.703Z,22.80
2024-05-09T10:59:32.408Z,22.90
2024-05-09T11:02:02.597Z,23.10
2024-05-09T11:04:30.130Z,23.40
2024-05-09T11:07:05.487Z,23.40
2024-05-09T11:09:33.708Z,23.30
2024-05-09T11:12:03.651Z,23.40
2024-05-09T11:14:30.829Z,23.60
2024-05-09T11:17:05.732Z,23.70
2024-05-09T11:19:34.320Z,23.80
2024-05-09T11:22:07.136Z,23.90
2024-05-09T11:24:35.399Z,23.90
2024-05-09T11:27:06.384Z,24.00
2024-05-09T11:29:40.485Z,24.30
2024-05-09T11:32:11.674Z,24.40
2024-05-09T11:34:39.150Z,24.60
2024-05-09T11:37:13.260Z,24.80
2024-05-09T11:39:40.535Z,25.00
2024-05-09T11:42:10.317Z,24.90
2024-05-09T11:44:37.424Z,24.90
2024-05-09T11:47:07.417Z,24.90
2024-05-09T11:49:34.620Z,25.00
2024-05-09T11:52:04.360Z,25.20
2024-05-09T11:54:34.134Z,25.60
2024-05-09T11:57:03.858Z,25.80
2024-05-09T11:59:31.014Z,25.80
2024-05-09T12:02:00.905Z,26.00
2024-05-09T12:04:28.185Z,26.20
2024-05-09T12:06:58.456Z,26.60
2024-05-09T12:09:26.491Z,27.00
2024-05-09T12:11:58.973Z,27.40
2024-05-09T12:14:26.224Z,27.90
2024-05-09T12:16:55.964Z,27.80
2024-05-09T12:19:23.339Z,28.10
2024-05-09T12:21:53.108Z,28.50
2024-05-09T12:24:20.319Z,29.00
2024-05-09T12:26:50.309Z,29.50
2024-05-09T12:29:20.233Z,29.80
2024-05-09T12:31:49.991Z,29.90
2024-05-09T12:34:18.738Z,30.40
2024-05-09T12:36:48.479Z,30.60
2024-05-09T12:39:15.825Z,31.10
2024-05-09T12:41:45.466Z,31.30
2024-05-09T12:44:12.609Z,31.80
2024-05-09T12:46:44.884Z,32.10
2024-05-09T12:49:13.755Z,32.60
2024-05-09T12:51:44.603Z,32.70
2024-05-09T12:54:11.722Z,33.00
2024-05-09T12:56:41.384Z,33.00
2024-05-09T12:59:08.466Z,31.70
2024-05-09T13:01:38.235Z,31.90
2024-05-09T13:04:08.250Z,32.20
2024-05-09T13:06:38.236Z,32.40
2024-05-09T13:09:05.402Z,32.90
2024-05-09T13:11:35.072Z,33.00
2024-05-09T13:14:02.136Z,33.30
2024-05-09T13:16:31.988Z,33.90
2024-05-09T13:18:59.243Z,34.00
2024-05-09T13:21:31.681Z,34.60
2024-05-09T13:24:00.449Z,35.10
2024-05-09T13:26:30.317Z,34.90
2024-05-09T13:28:57.498Z,35.40
2024-05-09T13:31:27.268Z,35.60
2024-05-09T13:33:57.150Z,36.10
2024-05-09T13:36:24.359Z,36.10
2024-05-09T13:38:57.220Z,36.30
2024-05-09T13:41:24.286Z,36.50
2024-05-09T13:43:53.959Z,36.40
2024-05-09T13:46:21.621Z,36.40
2024-05-09T13:48:51.577Z,36.60
2024-05-09T13:51:18.782Z,36.10
2024-05-09T13:53:48.495Z,36.30
2024-05-09T13:56:19.485Z,36.30
2024-05-09T13:58:50.575Z,36.90
2024-05-09T14:01:18.254Z,37.60
2024-05-09T14:03:48.680Z,37.40
2024-05-09T14:06:16.116Z,36.60
2024-05-09T14:08:45.876Z,37.20
2024-05-09T14:11:13.116Z,37.40
2024-05-09T14:13:45.516Z,37.00
2024-05-09T14:16:12.675Z,36.20
2024-05-09T14:18:42.462Z,34.50
2024-05-09T14:21:09.591Z,33.20
2024-05-09T14:23:39.248Z,32.10
2024-05-09T14:26:06.369Z,31.80
2024-05-09T14:28:36.112Z,32.00
2024-05-09T14:31:05.826Z,32.30
2024-05-09T14:33:35.779Z,33.30
2024-05-09T14:36:03.011Z,34.30
2024-05-09T14:38:32.748Z,35.80
2024-05-09T14:40:59.895Z,36.60
2024-05-09T14:43:29.690Z,37.10
2024-05-09T14:45:57.025Z,36.90
2024-05-09T14:48:29.814Z,37.80
2024-05-09T14:50:56.984Z,38.50
2024-05-09T14:53:28.162Z,38.00
2024-05-09T14:55:55.471Z,38.50
2024-05-09T14:58:25.394Z,39.40
2024-05-09T15:00:52.756Z,40.10
2024-05-09T15:03:23.124Z,39.30
2024-05-09T15:05:53.246Z,38.90
2024-05-09T15:08:23.184Z,39.30
2024-05-09T15:10:50.899Z,39.50
2024-05-09T15:13:21.151Z,39.30
2024-05-09T15:15:48.868Z,40.10
2024-05-09T15:18:19.215Z,40.40
2024-05-09T15:20:46.676Z,40.00
2024-05-09T15:23:19.153Z,40.40
2024-05-09T15:25:46.415Z,40.60
2024-05-09T15:28:16.494Z,41.00
2024-05-09T15:30:46.379Z,40.50
2024-05-09T15:33:16.911Z,39.30
2024-05-09T15:35:46.274Z,39.20
2024-05-09T15:38:19.855Z,38.60
2024-05-09T15:40:47.271Z,37.40
2024-05-09T15:43:17.303Z,35.40
2024-05-09T15:45:47.479Z,33.50
2024-05-09T15:48:14.792Z,31.90
2024-05-09T15:50:44.926Z,30.80
2024-05-09T15:53:13.361Z,30.00
2024-05-09T15:55:46.151Z,29.20
2024-05-09T15:58:14.147Z,28.80
2024-05-09T16:00:46.390Z,28.60
2024-05-09T16:03:15.830Z,28.40
2024-05-09T16:05:47.767Z,28.00
2024-05-09T16:08:16.361Z,27.60
2024-05-09T16:10:49.649Z,27.40
2024-05-09T16:13:17.638Z,27.10
2024-05-09T16:15:47.873Z,27.00
2024-05-09T16:18:15.658Z,26.80
2024-05-09T16:20:48.290Z,26.70
2024-05-09T16:23:17.193Z,26.60
2024-05-09T16:25:51.418Z,26.40
2024-05-09T16:28:19.329Z,26.20
2024-05-09T16:30:49.765Z,26.10
2024-05-09T16:33:19.365Z,26.20
2024-05-09T16:35:49.608Z,26.10
2024-05-09T16:38:16.860Z,25.90
2024-05-09T16:40:49.775Z,25.90
2024-05-09T16:43:17.084Z,25.80
2024-05-09T16:45:47.314Z,25.70
2024-05-09T16:48:14.940Z,25.50
2024-05-09T16:50:44.924Z,25.30
2024-05-09T16:53:13.590Z,25.10
2024-05-09T16:55:43.391Z,25.00
2024-05-09T16:58:14.430Z,24.90
2024-05-09T17:00:44.588Z,24.70
2024-05-09T17:03:14.432Z,24.60
2024-05-09T17:05:46.931Z,24.50
2024-05-09T17:08:16.569Z,24.50
2024-05-09T17:10:48.334Z,24.30
2024-05-09T17:13:21.671Z,24.10
2024-05-09T17:15:51.766Z,24.10
2024-05-09T17:18:21.742Z,24.20
2024-05-09T17:20:50.221Z,24.10
2024-05-09T17:23:20.115Z,24.10
2024-05-09T17:25:47.386Z,23.80
2024-05-09T17:28:20.356Z,23.70
2024-05-09T17:30:48.468Z,23.60
2024-05-09T17:33:18.330Z,23.50
2024-05-09T17:35:50.592Z,23.40
2024-05-09T17:38:18.425Z,23.40
2024-05-09T17:40:48.157Z,23.40
2024-05-09T17:43:18.085Z,23.30
2024-05-09T17:45:48.107Z,23.20
2024-05-09T17:48:15.512Z,23.10
2024-05-09T17:50:45.505Z,23.10
2024-05-09T17:53:12.637Z,23.10
2024-05-09T17:55:42.653Z,23.00
2024-05-09T17:58:10.851Z,22.90
2024-05-09T18:00:43.328Z,22.90
2024-05-09T18:03:12.102Z,22.80
2024-05-09T18:05:44.530Z,22.70
2024-05-09T18:08:12.821Z,22.50
2024-05-09T18:10:43.290Z,22.50
2024-05-09T18:13:11.785Z,22.40
2024-05-09T18:15:45.179Z,22.30
2024-05-09T18:18:13.272Z,22.30
2024-05-09T18:20:45.618Z,22.10
2024-05-09T18:23:16.248Z,22.10
2024-05-09T18:25:48.185Z,22.00
2024-05-09T18:28:16.951Z,21.90
2024-05-09T18:30:49.776Z,21.80
2024-05-09T18:33:17.133Z,21.80
2024-05-09T18:35:48.787Z,21.70
2024-05-09T18:38:16.031Z,21.70
2024-05-09T18:40:48.539Z,21.60
2024-05-09T18:43:16.873Z,21.40
2024-05-09T18:45:50.007Z,21.40
2024-05-09T18:48:18.314Z,21.30
2024-05-09T18:50:48.167Z,21.30
2024-05-09T18:53:16.100Z,21.10
2024-05-09T18:55:45.982Z,21.00
2024-05-09T18:58:13.204Z,20.90
2024-05-09T19:00:45.902Z,20.80
2024-05-09T19:03:18.347Z,20.80
2024-05-09T19:05:48.747Z,20.70
2024-05-09T19:08:16.091Z,20.60
2024-05-09T19:10:46.415Z,20.50
2024-05-09T19:13:14.631Z,20.40
2024-05-09T19:15:45.291Z,20.30
2024-05-09T19:18:13.581Z,20.30
2024-05-09T19:20:46.635Z,20.20
2024-05-09T19:23:14.834Z,20.10
2024-05-09T19:25:44.569Z,20.00
2024-05-09T19:28:11.716Z,19.90
2024-05-09T19:30:42.812Z,19.90
2024-05-09T19:33:12.312Z,19.80
2024-05-09T19:35:45.852Z,19.80
2024-05-09T19:38:13.266Z,19.70
2024-05-09T19:40:43.142Z,19.60
2024-05-09T19:43:11.133Z,19.50
2024-05-09T19:45:41.009Z,19.40
2024-05-09T19:48:08.785Z,19.30
2024-05-09T19:50:43.156Z,19.20
2024-05-09T19:53:15.027Z,19.00
2024-05-09T19:55:45.059Z,18.90
2024-05-09T19:58:13.044Z,18.80
2024-05-09T20:00:44.294Z,18.70
2024-05-09T20:03:13.305Z,18.60
2024-05-09T20:05:44.991Z,18.50
2024-05-09T20:08:15.168Z,18.50
2024-05-09T20:10:45.162Z,18.40
2024-05-09T20:13:13.417Z,18.40
2024-05-09T20:15:43.346Z,18.40
2024-05-09T20:18:10.866Z,18.30
2024-05-09T20:20:43.090Z,18.10
2024-05-09T20:23:14.663Z,18.10
2024-05-09T20:25:44.855Z,18.00
2024-05-09T20:28:12.050Z,17.90
2024-05-09T20:30:41.956Z,17.70
2024-05-09T20:33:09.988Z,17.50
2024-05-09T20:35:40.226Z,17.50
2024-05-09T20:38:07.746Z,17.40
2024-05-09T20:40:40.316Z,17.40
2024-05-09T20:43:08.511Z,17.40
2024-05-09T20:45:39.207Z,17.40
2024-05-09T20:48:08.567Z,17.20
2024-05-09T20:50:41.383Z,17.10
2024-05-09T20:53:10.841Z,17.10
2024-05-09T20:55:43.940Z,17.00
2024-05-09T20:58:12.267Z,16.90
2024-05-09T21:00:44.886Z,16.90
2024-05-09T21:03:15.268Z,16.90
2024-05-09T21:05:46.791Z,16.90
2024-05-09T21:08:14.374Z,16.90
2024-05-09T21:10:47.044Z,16.90
2024-05-09T21:13:14.446Z,16.80
2024-05-09T21:15:44.309Z,16.80
2024-05-09T21:18:11.502Z,16.80
2024-05-09T21:20:41.234Z,16.70
2024-05-09T21:23:08.564Z,16.70
2024-05-09T21:25:38.262Z,16.60
2024-05-09T21:28:08.247Z,16.60
2024-05-09T21:30:41.996Z,16.40
2024-05-09T21:33:12.536Z,16.40
2024-05-09T21:35:44.732Z,16.30
2024-05-09T21:38:13.940Z,16.40
2024-05-09T21:40:44.581Z,16.40
2024-05-09T21:43:14.956Z,16.40
2024-05-09T21:45:44.871Z,16.30
2024-05-09T21:48:13.479Z,16.30
2024-05-09T21:50:43.427Z,16.20
2024-05-09T21:53:11.079Z,16.10
2024-05-09T21:55:41.008Z,16.00
2024-05-09T21:58:08.345Z,16.00
